createdAt,value
2023-03-31T00:00:54.067Z,9.02
2023-03-31T00:03:23.860Z,9.06
2023-03-31T00:05:58.229Z,9.05
2023-03-31T00:08:30.041Z,9.08
2023-03-31T00:11:01.012Z,9.08
2023-03-31T00:13:31.095Z,9.09
2023-03-31T00:15:59.990Z,9.11
2023-03-31T00:18:27.724Z,9.09
2023-03-31T00:20:58.226Z,9.11
2023-03-31T00:23:29.116Z,9.12
2023-03-31T00:25:56.833Z,9.15
2023-03-31T00:28:24.544Z,9.14
2023-03-31T00:30:53.680Z,9.15
2023-03-31T00:33:21.256Z,9.13
2023-03-31T00:35:52.472Z,9.14
2023-03-31T00:38:22.049Z,9.16
2023-03-31T00:40:51.244Z,9.15
2023-03-31T00:43:32.235Z,9.14
2023-03-31T00:46:08.697Z,9.19
2023-03-31T00:48:38.618Z,9.20
2023-03-31T00:51:08.695Z,9.20
2023-03-31T00:53:37.913Z,9.21
2023-03-31T00:56:10.407Z,9.21
2023-03-31T00:58:43.899Z,9.23
2023-03-31T01:01:17.164Z,9.26
2023-03-31T01:03:46.741Z,9.27
2023-03-31T01:06:16.795Z,9.28
2023-03-31T01:08:45.397Z,9.30
2023-03-31T01:11:16.372Z,9.35
2023-03-31T01:13:45.953Z,9.35
2023-03-31T01:16:14.960Z,9.37
2023-03-31T01:18:46.467Z,9.37
2023-03-31T01:21:47.982Z,9.42
2023-03-31T01:25:01.446Z,9.44
2023-03-31T01:27:50.881Z,9.48
2023-03-31T01:30:38.552Z,9.50
2023-03-31T01:33:39.770Z,9.52
2023-03-31T01:36:23.446Z,9.51
2023-03-31T01:39:22.603Z,9.54
2023-03-31T01:41:59.308Z,9.54
2023-03-31T01:44:34.445Z,9.57
2023-03-31T01:47:06.069Z,9.58
2023-03-31T01:49:42.535Z,9.59
2023-03-31T01:52:20.501Z,9.59
2023-03-31T01:54:52.117Z,9.60
2023-03-31T01:57:28.907Z,9.61
2023-03-31T02:00:05.603Z,9.59
2023-03-31T02:02:38.642Z,9.60
2023-03-31T02:05:11.591Z,9.61
2023-03-31T02:07:44.155Z,9.63
2023-03-31T02:10:14.306Z,9.62
2023-03-31T02:12:45.622Z,9.60
2023-03-31T02:15:19.793Z,9.60
2023-03-31T02:17:50.817Z,9.61
2023-03-31T02:20:21.133Z,9.59
2023-03-31T02:22:53.493Z,9.60
2023-03-31T02:25:24.797Z,9.59
2023-03-31T02:27:57.761Z,9.59
2023-03-31T02:30:30.735Z,9.58
2023-03-31T02:32:59.837Z,9.58
2023-03-31T02:35:27.671Z,9.60
2023-03-31T02:37:55.465Z,9.59
2023-03-31T02:40:27.571Z,9.62
2023-03-31T02:42:57.101Z,9.59
2023-03-31T02:45:45.744Z,9.61
2023-03-31T02:48:19.143Z,9.60
2023-03-31T02:51:03.765Z,9.55
2023-03-31T02:53:44.563Z,9.56
2023-03-31T02:56:28.017Z,9.51
2023-03-31T02:59:13.899Z,9.53
2023-03-31T03:01:52.708Z,9.51
2023-03-31T03:04:37.276Z,9.51
2023-03-31T03:07:14.270Z,9.53
2023-03-31T03:09:52.319Z,9.53
2023-03-31T03:12:26.160Z,9.54
2023-03-31T03:15:01.552Z,9.54
2023-03-31T03:17:34.676Z,9.55
2023-03-31T03:20:07.881Z,9.52
2023-03-31T03:22:36.283Z,9.50
2023-03-31T03:25:04.801Z,9.48
2023-03-31T03:27:32.749Z,9.49
2023-03-31T03:30:02.641Z,9.49
2023-03-31T03:32:30.340Z,9.51
2023-03-31T03:34:58.074Z,9.50
2023-03-31T03:37:25.806Z,9.49
2023-03-31T03:39:53.495Z,9.49
2023-03-31T03:42:21.213Z,9.50
2023-03-31T03:44:48.810Z,9.52
2023-03-31T03:47:17.856Z,9.49
2023-03-31T03:49:45.478Z,9.48
2023-03-31T03:52:13.021Z,9.51
2023-03-31T03:54:40.595Z,9.53
2023-03-31T03:57:08.528Z,9.53
2023-03-31T03:59:36.338Z,9.53
2023-03-31T04:02:03.969Z,9.51
2023-03-31T04:04:33.025Z,9.52
2023-03-31T04:07:00.731Z,9.54
2023-03-31T04:09:28.724Z,9.52
2023-03-31T04:11:56.689Z,9.51
2023-03-31T04:14:25.860Z,9.54
2023-03-31T04:16:56.192Z,9.53
2023-03-31T04:19:25.930Z,9.55
2023-03-31T04:21:59.058Z,9.54
2023-03-31T04:24:30.579Z,9.55
2023-03-31T04:26:58.610Z,9.56
2023-03-31T04:29:27.443Z,9.57
2023-03-31T04:31:58.905Z,9.54
2023-03-31T04:34:34.918Z,9.54
2023-03-31T04:37:04.480Z,9.55
2023-03-31T04:39:32.378Z,9.52
2023-03-31T04:42:01.388Z,9.55
2023-03-31T04:44:29.737Z,9.58
2023-03-31T04:46:58.799Z,9.54
2023-03-31T04:49:26.503Z,9.54
2023-03-31T04:51:54.112Z,9.51
2023-03-31T04:54:23.187Z,9.55
2023-03-31T04:56:50.923Z,9.59
2023-03-31T04:59:18.517Z,9.62
2023-03-31T05:01:46.226Z,9.62
2023-03-31T05:04:14.111Z,9.63
2023-03-31T05:06:41.704Z,9.61
2023-03-31T05:09:09.862Z,9.60
2023-03-31T05:11:39.001Z,9.58
2023-03-31T05:14:06.766Z,9.61
2023-03-31T05:16:34.863Z,9.58
2023-03-31T05:19:02.838Z,9.58
2023-03-31T05:21:31.265Z,9.57
2023-03-31T05:23:59.225Z,9.58
2023-03-31T05:26:27.242Z,9.59
2023-03-31T05:28:56.269Z,9.61
2023-03-31T05:31:24.510Z,9.61
2023-03-31T05:33:52.205Z,9.63
2023-03-31T05:36:19.903Z,9.62
2023-03-31T05:38:47.915Z,9.64
2023-03-31T05:41:16.906Z,9.66
2023-03-31T05:43:44.667Z,9.68
2023-03-31T05:46:13.985Z,9.67
2023-03-31T05:48:42.446Z,9.69
2023-03-31T05:51:10.233Z,9.69
2023-03-31T05:53:37.902Z,9.70
2023-03-31T05:56:07.932Z,9.72
2023-03-31T05:58:36.736Z,9.73
2023-03-31T06:01:07.304Z,9.75
2023-03-31T06:03:37.853Z,9.79
2023-03-31T06:06:07.767Z,9.81
2023-03-31T06:08:36.138Z,9.88
2023-03-31T06:11:06.134Z,9.91
2023-03-31T06:13:34.142Z,9.94
2023-03-31T06:16:02.827Z,9.98
2023-03-31T06:18:32.046Z,10.02
2023-03-31T06:21:01.434Z,10.06
2023-03-31T06:23:29.225Z,10.08
2023-03-31T06:26:02.096Z,10.11
2023-03-31T06:28:30.071Z,10.18
2023-03-31T06:31:02.245Z,10.25
2023-03-31T06:33:29.931Z,10.32
2023-03-31T06:35:59.468Z,10.39
2023-03-31T06:38:29.056Z,10.47
2023-03-31T06:40:56.776Z,10.53
2023-03-31T06:43:24.646Z,10.55
2023-03-31T06:45:54.120Z,10.61
2023-03-31T06:48:23.485Z,10.65
2023-03-31T06:50:51.118Z,10.66
2023-03-31T06:53:18.825Z,10.65
2023-03-31T06:55:47.743Z,10.65
2023-03-31T06:58:15.704Z,10.55
2023-03-31T07:00:45.824Z,10.52
2023-03-31T07:03:14.920Z,10.48
2023-03-31T07:05:42.583Z,10.48
2023-03-31T07:08:10.618Z,10.46
2023-03-31T07:10:38.336Z,10.47
2023-03-31T07:13:07.382Z,10.45
2023-03-31T07:15:35.045Z,10.52
2023-03-31T07:18:03.072Z,10.58
2023-03-31T07:20:32.665Z,10.59
2023-03-31T07:23:00.288Z,10.62
2023-03-31T07:25:27.952Z,10.65
2023-03-31T07:27:55.568Z,10.64
2023-03-31T07:30:24.774Z,10.68
2023-03-31T07:32:54.728Z,10.72
2023-03-31T07:35:23.971Z,10.77
2023-03-31T07:37:52.753Z,10.81
2023-03-31T07:40:23.626Z,10.86
2023-03-31T07:42:52.257Z,10.94
2023-03-31T07:45:21.477Z,11.03
2023-03-31T07:47:50.739Z,11.10
2023-03-31T07:50:19.439Z,11.14
2023-03-31T07:52:47.615Z,11.20
2023-03-31T07:55:16.507Z,11.24
2023-03-31T07:57:46.248Z,11.31
2023-03-31T08:00:16.109Z,11.38
2023-03-31T08:02:44.703Z,11.46
2023-03-31T08:05:15.603Z,11.53
2023-03-31T08:07:45.885Z,11.62
2023-03-31T08:10:16.245Z,11.71
2023-03-31T08:12:44.059Z,11.75
2023-03-31T08:15:12.540Z,11.86
2023-03-31T08:17:40.694Z,11.95
2023-03-31T08:20:10.459Z,12.06
2023-03-31T08:22:41.579Z,12.14
2023-03-31T08:25:10.339Z,12.16
2023-03-31T08:27:39.684Z,12.17
2023-03-31T08:30:09.868Z,12.18
2023-03-31T08:32:38.336Z,12.16
2023-03-31T08:35:07.147Z,12.03
2023-03-31T08:37:34.809Z,12.02
2023-03-31T08:40:05.389Z,11.99
2023-03-31T08:42:39.419Z,11.97
2023-03-31T08:45:16.774Z,12.05
2023-03-31T08:47:47.276Z,12.05
2023-03-31T08:50:18.047Z,12.11
2023-03-31T08:52:51.312Z,12.20
2023-03-31T08:55:26.612Z,12.31
2023-03-31T08:58:00.950Z,12.39
2023-03-31T09:00:41.602Z,12.56
2023-03-31T09:03:16.565Z,12.77
2023-03-31T09:05:59.579Z,12.95
2023-03-31T09:08:37.589Z,13.19
2023-03-31T09:11:14.414Z,13.36
2023-03-31T09:14:07.004Z,13.46
2023-03-31T09:16:39.829Z,13.64
2023-03-31T09:19:15.424Z,13.68
2023-03-31T09:21:45.821Z,13.66
2023-03-31T09:24:19.934Z,13.68
2023-03-31T09:26:53.352Z,13.76
2023-03-31T09:29:29.513Z,13.77
2023-03-31T09:32:02.992Z,13.76
2023-03-31T09:34:33.190Z,13.91
2023-03-31T09:37:01.232Z,14.14
2023-03-31T09:39:28.852Z,14.29
2023-03-31T09:41:57.841Z,14.33
2023-03-31T09:44:38.029Z,14.21
2023-03-31T09:47:11.306Z,14.15
2023-03-31T09:49:41.645Z,14.04
2023-03-31T09:52:30.359Z,13.94
2023-03-31T09:55:02.099Z,13.85
2023-03-31T09:57:34.020Z,13.80
2023-03-31T10:00:14.588Z,13.69
2023-03-31T10:02:45.714Z,13.65
2023-03-31T10:05:31.200Z,13.74
2023-03-31T10:08:21.380Z,13.80
2023-03-31T10:10:51.426Z,13.90
2023-03-31T10:13:23.724Z,13.97
2023-03-31T10:15:54.321Z,14.11
2023-03-31T10:18:32.334Z,14.29
2023-03-31T10:21:01.260Z,14.45
2023-03-31T10:23:32.303Z,14.56
2023-03-31T10:26:01.580Z,14.78
2023-03-31T10:28:33.148Z,14.99
2023-03-31T10:31:03.062Z,15.08
2023-03-31T10:33:34.643Z,15.13
2023-03-31T10:36:08.264Z,14.96
2023-03-31T10:38:40.121Z,14.75
2023-03-31T10:41:08.323Z,14.59
2023-03-31T10:43:41.579Z,14.56
2023-03-31T10:46:10.622Z,14.67
2023-03-31T10:48:41.384Z,14.77
2023-03-31T10:51:15.801Z,14.76
2023-03-31T10:53:45.023Z,14.64
2023-03-31T10:56:36.140Z,14.57
2023-03-31T10:59:30.921Z,14.50
2023-03-31T11:02:23.907Z,14.43
2023-03-31T11:05:06.360Z,14.39
2023-03-31T11:07:49.569Z,14.22
2023-03-31T11:10:38.286Z,14.32
2023-03-31T11:13:12.551Z,14.46
2023-03-31T11:15:51.864Z,14.52
2023-03-31T11:18:37.495Z,14.58
2023-03-31T11:21:18.006Z,14.58
2023-03-31T11:23:51.873Z,14.24
2023-03-31T11:26:28.724Z,13.89
2023-03-31T11:29:16.319Z,13.62
2023-03-31T11:31:52.731Z,13.51
2023-03-31T11:34:48.837Z,13.40
2023-03-31T11:37:31.669Z,13.32
2023-03-31T11:40:14.536Z,13.41
2023-03-31T11:42:50.519Z,13.53
2023-03-31T11:45:22.730Z,13.58
2023-03-31T11:47:57.542Z,13.69
2023-03-31T11:50:29.809Z,13.79
2023-03-31T11:53:01.661Z,13.80
2023-03-31T11:55:32.388Z,13.94
2023-03-31T11:58:05.243Z,14.05
2023-03-31T12:00:38.195Z,14.11
2023-03-31T12:03:13.549Z,14.22
2023-03-31T12:05:46.188Z,14.35
2023-03-31T12:08:18.477Z,14.51
2023-03-31T12:10:51.309Z,14.66
2023-03-31T12:13:35.102Z,14.93
2023-03-31T12:16:07.548Z,15.18
2023-03-31T12:18:42.285Z,15.38
2023-03-31T12:21:11.401Z,15.62
2023-03-31T12:23:44.073Z,15.85
2023-03-31T12:26:23.395Z,16.13
2023-03-31T12:28:57.171Z,16.31
2023-03-31T12:31:27.238Z,16.33
2023-03-31T12:34:01.133Z,16.68
2023-03-31T12:36:43.079Z,16.76
2023-03-31T12:39:26.392Z,16.88
2023-03-31T12:42:07.304Z,16.97
2023-03-31T12:44:53.196Z,16.79
2023-03-31T12:47:41.913Z,16.77
2023-03-31T12:50:28.161Z,16.65
2023-03-31T12:53:06.183Z,16.51
2023-03-31T12:55:39.030Z,16.25
2023-03-31T12:58:42.373Z,16.19
2023-03-31T13:01:14.732Z,16.12
2023-03-31T13:03:48.948Z,16.05
2023-03-31T13:06:59.415Z,15.86
2023-03-31T13:09:46.399Z,15.97
2023-03-31T13:12:19.915Z,16.05
2023-03-31T13:14:49.558Z,16.09
2023-03-31T13:17:27.132Z,16.07
2023-03-31T13:19:56.186Z,15.95
2023-03-31T13:22:36.175Z,15.81
2023-03-31T13:25:43.589Z,15.60
2023-03-31T13:28:30.485Z,15.37
2023-03-31T13:31:02.038Z,15.09
2023-03-31T13:33:53.897Z,15.02
2023-03-31T13:36:41.707Z,14.78
2023-03-31T13:39:32.703Z,14.67
2023-03-31T13:42:12.728Z,14.54
2023-03-31T13:45:06.403Z,14.45
2023-03-31T13:48:00.166Z,14.23
2023-03-31T13:50:47.168Z,14.12
2023-03-31T13:53:29.138Z,14.02
2023-03-31T13:56:08.889Z,14.01
2023-03-31T13:59:04.324Z,13.94
2023-03-31T14:01:46.934Z,13.89
2023-03-31T14:04:31.291Z,13.86
2023-03-31T14:07:03.066Z,14.10
2023-03-31T14:09:34.183Z,14.44
2023-03-31T14:12:03.049Z,14.53
2023-03-31T14:14:30.909Z,14.63
2023-03-31T14:17:02.605Z,14.75
2023-03-31T14:20:07.967Z,14.88
2023-03-31T14:22:47.928Z,15.04
2023-03-31T14:25:24.058Z,15.22
2023-03-31T14:28:02.389Z,15.25
2023-03-31T14:30:42.482Z,15.07
2023-03-31T14:33:25.100Z,14.99
2023-03-31T14:35:59.430Z,14.92
2023-03-31T14:38:29.872Z,14.85
2023-03-31T14:41:01.024Z,14.72
2023-03-31T14:43:30.671Z,14.63
2023-03-31T14:45:59.851Z,14.54
2023-03-31T14:48:30.564Z,14.46
2023-03-31T14:50:59.933Z,14.37
2023-03-31T14:53:28.258Z,14.35
2023-03-31T14:56:02.176Z,14.41
2023-03-31T14:58:34.649Z,14.51
2023-03-31T15:01:05.110Z,14.49
2023-03-31T15:03:36.247Z,14.63
2023-03-31T15:06:05.885Z,14.55
2023-03-31T15:08:36.817Z,14.54
2023-03-31T15:11:13.122Z,14.61
2023-03-31T15:13:53.431Z,14.73
2023-03-31T15:16:32.582Z,14.85
2023-03-31T15:19:06.362Z,14.77
2023-03-31T15:21:38.890Z,14.78
2023-03-31T15:24:07.931Z,14.63
2023-03-31T15:26:41.477Z,14.51
2023-03-31T15:29:14.790Z,14.36
2023-03-31T15:31:42.668Z,14.22
2023-03-31T15:34:16.964Z,14.07
2023-03-31T15:36:45.087Z,14.02
2023-03-31T15:39:14.549Z,13.97
2023-03-31T15:41:43.538Z,13.86
2023-03-31T15:44:36.260Z,13.81
2023-03-31T15:47:08.791Z,13.79
2023-03-31T15:49:37.998Z,13.80
2023-03-31T15:52:06.013Z,13.75
2023-03-31T15:54:38.940Z,13.70
2023-03-31T15:57:08.020Z,13.55
2023-03-31T16:02:24.094Z,13.50
2023-03-31T16:04:57.998Z,13.45
2023-03-31T16:07:28.229Z,13.25
2023-03-31T16:10:00.727Z,13.18
2023-03-31T16:12:32.664Z,13.04
2023-03-31T16:15:05.802Z,12.95
2023-03-31T16:17:37.935Z,12.90
2023-03-31T16:20:12.098Z,12.76
2023-03-31T16:22:44.686Z,12.71
2023-03-31T16:25:14.774Z,12.68
2023-03-31T16:27:45.014Z,12.62
2023-03-31T16:30:15.518Z,12.64
2023-03-31T16:33:02.910Z,12.61
2023-03-31T16:35:34.126Z,12.56
2023-03-31T16:38:02.861Z,12.45
2023-03-31T16:40:32.736Z,12.40
2023-03-31T16:43:14.343Z,12.27
2023-03-31T16:45:45.100Z,12.29
2023-03-31T16:48:17.106Z,12.28
2023-03-31T16:50:48.415Z,12.24
2023-03-31T16:53:17.627Z,12.15
2023-03-31T16:55:45.598Z,12.17
2023-03-31T16:58:13.549Z,12.10
2023-03-31T17:00:41.371Z,12.02
2023-03-31T17:03:10.914Z,12.02
2023-03-31T17:05:39.856Z,11.94
2023-03-31T17:08:10.058Z,11.83
2023-03-31T17:10:38.772Z,11.75
2023-03-31T17:13:08.865Z,11.73
2023-03-31T17:15:37.883Z,11.68
2023-03-31T17:18:07.281Z,11.68
2023-03-31T17:20:35.460Z,11.67
2023-03-31T17:23:04.322Z,11.60
2023-03-31T17:25:34.446Z,11.59
2023-03-31T17:28:02.063Z,11.60
2023-03-31T17:30:29.898Z,11.50
2023-03-31T17:32:58.351Z,11.47
2023-03-31T17:35:26.279Z,11.39
2023-03-31T17:37:55.147Z,11.39
2023-03-31T17:40:24.685Z,11.35
2023-03-31T17:42:54.348Z,11.34
2023-03-31T17:45:22.110Z,11.28
2023-03-31T17:47:50.228Z,11.22
2023-03-31T17:50:18.216Z,11.21
2023-03-31T17:52:45.793Z,11.19
2023-03-31T17:55:14.457Z,11.20
2023-03-31T17:57:42.144Z,11.16
2023-03-31T18:00:15.058Z,11.08
2023-03-31T18:02:43.897Z,11.08
2023-03-31T18:05:12.102Z,11.07
2023-03-31T18:07:39.822Z,11.05
2023-03-31T18:10:08.557Z,11.00
2023-03-31T18:12:36.719Z,10.96
2023-03-31T18:15:06.947Z,10.93
2023-03-31T18:17:36.498Z,10.91
2023-03-31T18:20:05.418Z,10.85
2023-03-31T18:22:33.088Z,10.80
2023-03-31T18:25:00.757Z,10.74
2023-03-31T18:27:28.375Z,10.66
2023-03-31T18:29:56.062Z,10.65
2023-03-31T18:32:23.757Z,10.65
2023-03-31T18:34:52.814Z,10.57
2023-03-31T18:37:20.826Z,10.57
2023-03-31T18:39:48.438Z,10.51
2023-03-31T18:42:18.312Z,10.50
2023-03-31T18:44:46.419Z,10.49
2023-03-31T18:47:14.461Z,10.43
2023-03-31T18:49:42.678Z,10.40
2023-03-31T18:52:11.817Z,10.42
2023-03-31T18:54:39.418Z,10.38
2023-03-31T18:57:07.414Z,10.40
2023-03-31T18:59:35.104Z,10.38
2023-03-31T19:02:02.798Z,10.33
2023-03-31T19:04:30.915Z,10.36
2023-03-31T19:06:58.559Z,10.33
2023-03-31T19:09:27.905Z,10.33
2023-03-31T19:11:57.165Z,10.31
2023-03-31T19:14:25.109Z,10.30
2023-03-31T19:16:52.907Z,10.24
2023-03-31T19:19:20.653Z,10.27
2023-03-31T19:21:48.497Z,10.25
2023-03-31T19:24:16.858Z,10.25
2023-03-31T19:26:45.836Z,10.26
2023-03-31T19:29:13.500Z,10.25
2023-03-31T19:31:41.502Z,10.26
2023-03-31T19:34:11.512Z,10.26
2023-03-31T19:36:40.135Z,10.27
2023-03-31T19:39:08.232Z,10.23
2023-03-31T19:41:36.698Z,10.22
2023-03-31T19:44:05.805Z,10.23
2023-03-31T19:46:33.642Z,10.22
2023-03-31T19:49:01.444Z,10.19
2023-03-31T19:51:29.051Z,10.18
2023-03-31T19:53:56.953Z,10.16
2023-03-31T19:56:27.006Z,10.16
2023-03-31T19:58:54.718Z,10.14
2023-03-31T20:01:26.026Z,10.16
2023-03-31T20:03:56.372Z,10.14
2023-03-31T20:06:26.423Z,10.16
2023-03-31T20:08:55.891Z,10.10
2023-03-31T20:11:24.527Z,10.06
2023-03-31T20:13:52.396Z,10.07
2023-03-31T20:16:22.369Z,10.06
2023-03-31T20:18:57.204Z,10.00
2023-03-31T20:21:27.159Z,9.99
2023-03-31T20:23:56.365Z,9.97
2023-03-31T20:26:26.326Z,9.99
2023-03-31T20:28:55.916Z,9.96
2023-03-31T20:31:25.553Z,9.93
2023-03-31T20:33:57.072Z,9.93
2023-03-31T20:36:27.103Z,9.90
2023-03-31T20:38:54.924Z,9.85
2023-03-31T20:41:24.669Z,9.85
2023-03-31T20:43:52.318Z,9.77
2023-03-31T20:46:20.194Z,9.73
2023-03-31T20:48:49.660Z,9.69
2023-03-31T20:51:20.813Z,9.70
2023-03-31T20:53:50.256Z,9.68
2023-03-31T20:56:19.984Z,9.65
2023-03-31T20:58:49.023Z,9.62
2023-03-31T21:01:19.724Z,9.64
2023-03-31T21:03:47.911Z,9.65
2023-03-31T21:06:18.528Z,9.65
2023-03-31T21:08:47.552Z,9.67
2023-03-31T21:11:15.391Z,9.64
2023-03-31T21:13:44.674Z,9.65
2023-03-31T21:16:12.874Z,9.64
2023-03-31T21:18:40.500Z,9.67
2023-03-31T21:21:11.139Z,9.66
2023-03-31T21:23:40.592Z,9.67
2023-03-31T21:26:09.915Z,9.66
2023-03-31T21:28:39.095Z,9.64
2023-03-31T21:31:08.057Z,9.65
2023-03-31T21:33:38.440Z,9.64
2023-03-31T21:36:07.732Z,9.66
2023-03-31T21:38:36.219Z,9.67
2023-03-31T21:41:07.942Z,9.70
2023-03-31T21:43:35.918Z,9.69
2023-03-31T21:46:03.667Z,9.73
2023-03-31T21:48:31.864Z,9.73
2023-03-31T21:51:00.652Z,9.70
2023-03-31T21:53:30.152Z,9.71
2023-03-31T21:55:58.546Z,9.74
2023-03-31T21:58:29.659Z,9.72
2023-03-31T22:00:58.952Z,9.71
2023-03-31T22:03:28.752Z,9.64
2023-03-31T22:05:57.121Z,9.62
2023-03-31T22:08:25.315Z,9.45
2023-03-31T22:10:53.669Z,9.31
2023-03-31T22:13:22.095Z,9.15
2023-03-31T22:15:51.484Z,9.07
2023-03-31T22:18:19.864Z,8.93
2023-03-31T22:20:48.412Z,8.83
2023-03-31T22:23:16.736Z,8.70
2023-03-31T22:25:44.694Z,8.58
2023-03-31T22:28:12.712Z,8.48
2023-03-31T22:30:40.464Z,8.36
2023-03-31T22:33:09.477Z,8.25
2023-03-31T22:35:37.305Z,8.12
2023-03-31T22:38:06.350Z,8.09
2023-03-31T22:40:35.779Z,7.97
2023-03-31T22:43:03.891Z,7.88
2023-03-31T22:45:31.687Z,7.78
2023-03-31T22:47:59.672Z,7.62
2023-03-31T22:50:28.702Z,7.60
2023-03-31T22:52:56.629Z,7.48
2023-03-31T22:55:24.325Z,7.40
2023-03-31T22:57:51.962Z,7.32
2023-03-31T23:00:20.210Z,7.24
2023-03-31T23:02:47.900Z,7.18
2023-03-31T23:05:15.729Z,7.18
2023-03-31T23:07:44.775Z,7.12
2023-03-31T23:10:12.545Z,7.00
2023-03-31T23:12:40.201Z,6.99
2023-03-31T23:15:09.161Z,6.99
2023-03-31T23:17:36.882Z,6.94
2023-03-31T23:20:06.354Z,6.93
2023-03-31T23:22:34.932Z,6.86
2023-03-31T23:25:04.363Z,6.92
2023-03-31T23:27:32.253Z,6.88
2023-03-31T23:30:00.363Z,6.94
2023-03-31T23:32:29.908Z,6.90
2023-03-31T23:34:57.504Z,6.89
2023-03-31T23:37:25.246Z,6.82
2023-03-31T23:39:52.999Z,6.84
2023-03-31T23:42:22.121Z,6.84
2023-03-31T23:44:49.744Z,6.81
2023-03-31T23:47:17.347Z,6.78
2023-03-31T23:49:45.024Z,6.77
2023-03-31T23:52:12.626Z,6.77
2023-03-31T23:54:40.301Z,6.75
2023-03-31T23:57:08.239Z,6.75
2023-03-31T23:59:37.385Z,6.73
